sensor_id;sensor_type;location;lat;lon;timestamp;temperature;humidity
2929;DHT22;1474;51.460;7.150;2022-11-20T00:00:07;-0.50;99.90
2929;DHT22;1474;51.460;7.150;2022-11-20T00:02:32;-0.50;99.90
2929;DHT22;1474;51.460;7.150;2022-11-20T00:04:58;-0.50;99.90
2929;DHT22;1474;51.460;7.150;2022-11-20T00:07:23;-0.40;99.90
2929;DHT22;1474;51.460;7.150;2022-11-20T00:09:49;-0.40;99.90
2929;DHT22;1474;51.460;7.150;2022-11-20T00:12:15;-0.40;99.90
2929;DHT22;1474;51.460;7.150;2022-11-20T00:14:41;-0.30;99.90
2929;DHT22;1474;51.460;7.150;2022-11-20T00:17:06;-0.30;99.90
2929;DHT22;1474;51.460;7.150;2022-11-20T00:19:32;-0.20;99.90
2929;DHT22;1474;51.460;7.150;2022-11-20T00:21:58;-0.20;99.90
2929;DHT22;1474;51.460;7.150;2022-11-20T00:24:23;-0.20;99.90
2929;DHT22;1474;51.460;7.150;2022-11-20T00:26:49;-0.10;99.90
2929;DHT22;1474;51.460;7.150;2022-11-20T00:29:15;-0.20;99.90
2929;DHT22;1474;51.460;7.150;2022-11-20T00:31:41;-0.30;99.90
2929;DHT22;1474;51.460;7.150;2022-11-20T00:34:06;-0.30;99.90
2929;DHT22;1474;51.460;7.150;2022-11-20T00:36:33;-0.30;99.90
2929;DHT22;1474;51.460;7.150;2022-11-20T00:38:59;-0.30;99.90
2929;DHT22;1474;51.460;7.150;2022-11-20T00:41:27;-0.30;99.90
2929;DHT22;1474;51.460;7.150;2022-11-20T00:43:54;-0.30;99.90
2929;DHT22;1474;51.460;7.150;2022-11-20T00:46:22;-0.30;99.90
2929;DHT22;1474;51.460;7.150;2022-11-20T00:48:48;-0.30;99.90
2929;DHT22;1474;51.460;7.150;2022-11-20T00:51:16;-0.30;99.90
2929;DHT22;1474;51.460;7.150;2022-11-20T00:53:43;-0.30;99.90
2929;DHT22;1474;51.460;7.150;2022-11-20T00:56:11;-0.30;99.90
2929;DHT22;1474;51.460;7.150;2022-11-20T00:58:40;-0.30;99.90
2929;DHT22;1474;51.460;7.150;2022-11-20T01:01:08;-0.30;99.90
2929;DHT22;1474;51.460;7.150;2022-11-20T01:03:36;-0.30;99.90
2929;DHT22;1474;51.460;7.150;2022-11-20T01:06:04;-0.30;99.90
2929;DHT22;1474;51.460;7.150;2022-11-20T01:08:31;-0.30;99.90
2929;DHT22;1474;51.460;7.150;2022-11-20T01:11:12;-0.30;99.90
2929;DHT22;1474;51.460;7.150;2022-11-20T01:13:38;-0.30;99.90
2929;DHT22;1474;51.460;7.150;2022-11-20T01:16:13;-0.30;99.90
2929;DHT22;1474;51.460;7.150;2022-11-20T01:18:41;-0.40;99.90
2929;DHT22;1474;51.460;7.150;2022-11-20T01:21:14;-0.30;99.90
2929;DHT22;1474;51.460;7.150;2022-11-20T01:23:41;-0.30;99.90
2929;DHT22;1474;51.460;7.150;2022-11-20T01:26:10;-0.30;99.90
2929;DHT22;1474;51.460;7.150;2022-11-20T01:28:36;-0.30;99.90
2929;DHT22;1474;51.460;7.150;2022-11-20T01:31:09;-0.30;99.90
2929;DHT22;1474;51.460;7.150;2022-11-20T01:33:36;-0.30;99.90
2929;DHT22;1474;51.460;7.150;2022-11-20T01:36:05;-0.30;99.90
2929;DHT22;1474;51.460;7.150;2022-11-20T01:38:31;-0.30;99.90
2929;DHT22;1474;51.460;7.150;2022-11-20T01:40:57;-0.30;99.90
2929;DHT22;1474;51.460;7.150;2022-11-20T01:43:23;-0.30;99.90
2929;DHT22;1474;51.460;7.150;2022-11-20T01:46:16;-0.40;99.90
2929;DHT22;1474;51.460;7.150;2022-11-20T01:48:44;-0.30;99.90
2929;DHT22;1474;51.460;7.150;2022-11-20T01:51:48;-0.40;99.90
2929;DHT22;1474;51.460;7.150;2022-11-20T01:54:23;-0.40;99.90
2929;DHT22;1474;51.460;7.150;2022-11-20T01:56:52;-0.40;99.90
2929;DHT22;1474;51.460;7.150;2022-11-20T01:59:21;-0.40;99.90
2929;DHT22;1474;51.460;7.150;2022-11-20T02:01:49;-0.40;99.90
2929;DHT22;1474;51.460;7.150;2022-11-20T02:04:15;-0.30;99.90
2929;DHT22;1474;51.460;7.150;2022-11-20T02:06:48;-0.40;99.90
2929;DHT22;1474;51.460;7.150;2022-11-20T02:09:15;-0.30;99.90
2929;DHT22;1474;51.460;7.150;2022-11-20T02:11:41;-0.30;99.90
2929;DHT22;1474;51.460;7.150;2022-11-20T02:14:07;-0.20;99.90
2929;DHT22;1474;51.460;7.150;2022-11-20T02:16:36;-0.20;99.90
2929;DHT22;1474;51.460;7.150;2022-11-20T02:19:07;-0.20;99.90
2929;DHT22;1474;51.460;7.150;2022-11-20T02:21:56;-0.20;99.90
2929;DHT22;1474;51.460;7.150;2022-11-20T02:24:25;-0.10;99.90
2929;DHT22;1474;51.460;7.150;2022-11-20T02:26:54;-0.10;99.90
2929;DHT22;1474;51.460;7.150;2022-11-20T02:29:37;-0.20;99.90
2929;DHT22;1474;51.460;7.150;2022-11-20T02:32:03;-0.10;99.90
2929;DHT22;1474;51.460;7.150;2022-11-20T02:34:29;-0.10;99.90
2929;DHT22;1474;51.460;7.150;2022-11-20T02:36:56;-0.10;99.90
2929;DHT22;1474;51.460;7.150;2022-11-20T02:39:25;-0.10;99.90
2929;DHT22;1474;51.460;7.150;2022-11-20T02:41:53;-0.10;99.90
2929;DHT22;1474;51.460;7.150;2022-11-20T02:44:19;-0.10;99.90
2929;DHT22;1474;51.460;7.150;2022-11-20T02:46:45;-0.10;99.90
2929;DHT22;1474;51.460;7.150;2022-11-20T02:49:11;-0.10;99.90
2929;DHT22;1474;51.460;7.150;2022-11-20T02:51:37;0.00;99.90
2929;DHT22;1474;51.460;7.150;2022-11-20T02:54:02;0.00;99.90
2929;DHT22;1474;51.460;7.150;2022-11-20T02:56:28;0.10;99.90
2929;DHT22;1474;51.460;7.150;2022-11-20T02:58:54;0.10;99.90
2929;DHT22;1474;51.460;7.150;2022-11-20T03:01:21;0.10;99.90
2929;DHT22;1474;51.460;7.150;2022-11-20T03:03:46;0.10;99.90
2929;DHT22;1474;51.460;7.150;2022-11-20T03:06:14;0.10;99.90
2929;DHT22;1474;51.460;7.150;2022-11-20T03:08:40;0.20;99.90
2929;DHT22;1474;51.460;7.150;2022-11-20T03:11:08;0.20;99.90
2929;DHT22;1474;51.460;7.150;2022-11-20T03:13:34;0.20;99.90
2929;DHT22;1474;51.460;7.150;2022-11-20T03:16:14;0.10;99.90
2929;DHT22;1474;51.460;7.150;2022-11-20T03:18:41;0.20;99.90
2929;DHT22;1474;51.460;7.150;2022-11-20T03:21:08;0.10;99.90
2929;DHT22;1474;51.460;7.150;2022-11-20T03:23:34;0.20;99.90
2929;DHT22;1474;51.460;7.150;2022-11-20T03:26:16;0.20;99.90
2929;DHT22;1474;51.460;7.150;2022-11-20T03:28:46;0.20;99.90
2929;DHT22;1474;51.460;7.150;2022-11-20T03:31:13;0.30;99.90
2929;DHT22;1474;51.460;7.150;2022-11-20T03:33:41;0.30;99.90
2929;DHT22;1474;51.460;7.150;2022-11-20T03:36:09;0.30;99.90
2929;DHT22;1474;51.460;7.150;2022-11-20T03:38:36;0.30;99.90
2929;DHT22;1474;51.460;7.150;2022-11-20T03:41:08;0.30;99.90
2929;DHT22;1474;51.460;7.150;2022-11-20T03:43:34;0.30;99.90
2929;DHT22;1474;51.460;7.150;2022-11-20T03:46:01;0.30;99.90
2929;DHT22;1474;51.460;7.150;2022-11-20T03:48:27;0.40;99.90
2929;DHT22;1474;51.460;7.150;2022-11-20T03:51:05;0.40;99.90
2929;DHT22;1474;51.460;7.150;2022-11-20T03:53:31;0.40;99.90
2929;DHT22;1474;51.460;7.150;2022-11-20T03:55:57;0.40;99.90
2929;DHT22;1474;51.460;7.150;2022-11-20T03:58:22;0.40;99.90
2929;DHT22;1474;51.460;7.150;2022-11-20T04:00:48;0.40;99.90
2929;DHT22;1474;51.460;7.150;2022-11-20T04:03:14;0.50;99.90
2929;DHT22;1474;51.460;7.150;2022-11-20T04:05:39;0.50;99.90
2929;DHT22;1474;51.460;7.150;2022-11-20T04:08:05;0.40;99.90
2929;DHT22;1474;51.460;7.150;2022-11-20T04:10:31;0.50;99.90
2929;DHT22;1474;51.460;7.150;2022-11-20T04:12:56;0.60;99.90
2929;DHT22;1474;51.460;7.150;2022-11-20T04:15:22;0.60;99.90
2929;DHT22;1474;51.460;7.150;2022-11-20T04:17:47;0.60;99.90
2929;DHT22;1474;51.460;7.150;2022-11-20T04:20:13;0.60;99.90
2929;DHT22;1474;51.460;7.150;2022-11-20T04:22:39;0.60;99.90
2929;DHT22;1474;51.460;7.150;2022-11-20T04:25:05;0.70;99.90
2929;DHT22;1474;51.460;7.150;2022-11-20T04:27:31;0.60;99.90
2929;DHT22;1474;51.460;7.150;2022-11-20T04:29:56;0.60;99.90
2929;DHT22;1474;51.460;7.150;2022-11-20T04:32:22;0.70;99.90
2929;DHT22;1474;51.460;7.150;2022-11-20T04:34:48;0.70;99.90
2929;DHT22;1474;51.460;7.150;2022-11-20T04:37:13;0.70;99.90
2929;DHT22;1474;51.460;7.150;2022-11-20T04:39:39;0.80;99.90
2929;DHT22;1474;51.460;7.150;2022-11-20T04:42:04;0.80;99.90
2929;DHT22;1474;51.460;7.150;2022-11-20T04:44:49;0.80;99.90
2929;DHT22;1474;51.460;7.150;2022-11-20T04:47:14;0.90;99.90
2929;DHT22;1474;51.460;7.150;2022-11-20T04:49:40;0.90;99.90
2929;DHT22;1474;51.460;7.150;2022-11-20T04:52:05;0.90;99.90
2929;DHT22;1474;51.460;7.150;2022-11-20T04:54:31;0.90;99.90
2929;DHT22;1474;51.460;7.150;2022-11-20T04:56:56;1.00;99.90
2929;DHT22;1474;51.460;7.150;2022-11-20T04:59:22;1.00;99.90
2929;DHT22;1474;51.460;7.150;2022-11-20T05:01:48;1.00;99.90
2929;DHT22;1474;51.460;7.150;2022-11-20T05:04:13;1.00;99.90
2929;DHT22;1474;51.460;7.150;2022-11-20T05:06:39;1.00;99.90
2929;DHT22;1474;51.460;7.150;2022-11-20T05:09:04;1.00;99.90
2929;DHT22;1474;51.460;7.150;2022-11-20T05:11:31;1.00;99.90
2929;DHT22;1474;51.460;7.150;2022-11-20T05:13:58;1.00;99.90
2929;DHT22;1474;51.460;7.150;2022-11-20T05:16:25;1.00;99.90
2929;DHT22;1474;51.460;7.150;2022-11-20T05:18:52;1.00;99.90
2929;DHT22;1474;51.460;7.150;2022-11-20T05:21:18;1.00;99.90
2929;DHT22;1474;51.460;7.150;2022-11-20T05:23:44;1.00;99.90
2929;DHT22;1474;51.460;7.150;2022-11-20T05:26:19;1.00;99.90
2929;DHT22;1474;51.460;7.150;2022-11-20T05:28:45;1.00;99.90
2929;DHT22;1474;51.460;7.150;2022-11-20T05:31:13;1.00;99.90
2929;DHT22;1474;51.460;7.150;2022-11-20T05:33:40;1.10;99.90
2929;DHT22;1474;51.460;7.150;2022-11-20T05:36:07;1.10;99.90
2929;DHT22;1474;51.460;7.150;2022-11-20T05:38:36;1.00;99.90
2929;DHT22;1474;51.460;7.150;2022-11-20T05:41:19;1.00;99.90
2929;DHT22;1474;51.460;7.150;2022-11-20T05:43:46;1.00;99.90
2929;DHT22;1474;51.460;7.150;2022-11-20T05:46:14;1.00;99.90
2929;DHT22;1474;51.460;7.150;2022-11-20T05:48:41;1.00;99.90
2929;DHT22;1474;51.460;7.150;2022-11-20T05:51:10;1.00;99.90
2929;DHT22;1474;51.460;7.150;2022-11-20T05:53:36;1.00;99.90
2929;DHT22;1474;51.460;7.150;2022-11-20T05:56:08;1.00;99.90
2929;DHT22;1474;51.460;7.150;2022-11-20T05:58:36;1.10;99.90
2929;DHT22;1474;51.460;7.150;2022-11-20T06:01:10;1.00;99.90
2929;DHT22;1474;51.460;7.150;2022-11-20T06:03:39;1.10;99.90
2929;DHT22;1474;51.460;7.150;2022-11-20T06:06:07;1.10;99.90
2929;DHT22;1474;51.460;7.150;2022-11-20T06:08:36;1.10;99.90
2929;DHT22;1474;51.460;7.150;2022-11-20T06:11:09;1.10;99.90
2929;DHT22;1474;51.460;7.150;2022-11-20T06:13:35;1.10;99.90
2929;DHT22;1474;51.460;7.150;2022-11-20T06:16:01;1.10;99.90
2929;DHT22;1474;51.460;7.150;2022-11-20T06:18:28;1.20;99.90
2929;DHT22;1474;51.460;7.150;2022-11-20T06:21:01;1.20;99.90
2929;DHT22;1474;51.460;7.150;2022-11-20T06:23:30;1.20;99.90
2929;DHT22;1474;51.460;7.150;2022-11-20T06:25:55;1.20;99.90
2929;DHT22;1474;51.460;7.150;2022-11-20T06:28:24;1.10;99.90
2929;DHT22;1474;51.460;7.150;2022-11-20T06:30:50;1.10;99.90
2929;DHT22;1474;51.460;7.150;2022-11-20T06:33:15;1.10;99.90
2929;DHT22;1474;51.460;7.150;2022-11-20T06:35:41;1.20;99.90
2929;DHT22;1474;51.460;7.150;2022-11-20T06:38:06;1.10;99.90
2929;DHT22;1474;51.460;7.150;2022-11-20T06:40:32;1.20;99.90
2929;DHT22;1474;51.460;7.150;2022-11-20T06:42:58;1.20;99.90
2929;DHT22;1474;51.460;7.150;2022-11-20T06:45:32;1.20;99.90
2929;DHT22;1474;51.460;7.150;2022-11-20T06:48:00;1.10;99.90
2929;DHT22;1474;51.460;7.150;2022-11-20T06:50:26;1.20;99.90
2929;DHT22;1474;51.460;7.150;2022-11-20T06:52:51;1.10;99.90
2929;DHT22;1474;51.460;7.150;2022-11-20T06:55:17;1.10;99.90
2929;DHT22;1474;51.460;7.150;2022-11-20T06:57:42;1.20;99.90
2929;DHT22;1474;51.460;7.150;2022-11-20T07:00:08;1.10;99.90
2929;DHT22;1474;51.460;7.150;2022-11-20T07:02:34;1.10;99.90
2929;DHT22;1474;51.460;7.150;2022-11-20T07:05:00;1.10;99.90
2929;DHT22;1474;51.460;7.150;2022-11-20T07:07:25;1.10;99.90
2929;DHT22;1474;51.460;7.150;2022-11-20T07:09:51;1.10;99.90
2929;DHT22;1474;51.460;7.150;2022-11-20T07:12:17;1.10;99.90
2929;DHT22;1474;51.460;7.150;2022-11-20T07:14:42;1.00;99.90
2929;DHT22;1474;51.460;7.150;2022-11-20T07:17:08;1.00;99.90
2929;DHT22;1474;51.460;7.150;2022-11-20T07:19:33;1.00;99.90
2929;DHT22;1474;51.460;7.150;2022-11-20T07:21:59;1.00;99.90
2929;DHT22;1474;51.460;7.150;2022-11-20T07:24:25;1.00;99.90
2929;DHT22;1474;51.460;7.150;2022-11-20T07:26:50;0.90;99.90
2929;DHT22;1474;51.460;7.150;2022-11-20T07:29:16;0.90;99.90
2929;DHT22;1474;51.460;7.150;2022-11-20T07:31:42;1.00;99.90
2929;DHT22;1474;51.460;7.150;2022-11-20T07:34:08;0.90;99.90
2929;DHT22;1474;51.460;7.150;2022-11-20T07:36:34;0.90;99.90
2929;DHT22;1474;51.460;7.150;2022-11-20T07:38:59;1.00;99.90
2929;DHT22;1474;51.460;7.150;2022-11-20T07:41:25;1.00;99.90
2929;DHT22;1474;51.460;7.150;2022-11-20T07:43:50;1.00;99.90
2929;DHT22;1474;51.460;7.150;2022-11-20T07:46:16;1.00;99.90
2929;DHT22;1474;51.460;7.150;2022-11-20T07:48:42;1.00;99.90
2929;DHT22;1474;51.460;7.150;2022-11-20T07:51:07;1.00;99.90
2929;DHT22;1474;51.460;7.150;2022-11-20T07:53:33;1.00;99.90
2929;DHT22;1474;51.460;7.150;2022-11-20T07:56:00;1.00;99.90
2929;DHT22;1474;51.460;7.150;2022-11-20T07:58:26;1.10;99.90
2929;DHT22;1474;51.460;7.150;2022-11-20T08:00:53;1.10;99.90
2929;DHT22;1474;51.460;7.150;2022-11-20T08:03:19;1.10;99.90
2929;DHT22;1474;51.460;7.150;2022-11-20T08:05:44;1.10;99.90
2929;DHT22;1474;51.460;7.150;2022-11-20T08:08:10;1.10;99.90
2929;DHT22;1474;51.460;7.150;2022-11-20T08:10:44;1.20;99.90
2929;DHT22;1474;51.460;7.150;2022-11-20T08:13:16;1.20;99.90
2929;DHT22;1474;51.460;7.150;2022-11-20T08:16:02;1.20;99.90
2929;DHT22;1474;51.460;7.150;2022-11-20T08:18:31;1.30;99.90
2929;DHT22;1474;51.460;7.150;2022-11-20T08:20:57;1.30;99.90
2929;DHT22;1474;51.460;7.150;2022-11-20T08:23:23;1.30;99.90
2929;DHT22;1474;51.460;7.150;2022-11-20T08:25:57;1.40;99.90
2929;DHT22;1474;51.460;7.150;2022-11-20T08:28:22;1.30;99.90
2929;DHT22;1474;51.460;7.150;2022-11-20T08:30:49;1.40;99.90
2929;DHT22;1474;51.460;7.150;2022-11-20T08:33:15;1.50;99.90
2929;DHT22;1474;51.460;7.150;2022-11-20T08:35:42;1.60;99.90
2929;DHT22;1474;51.460;7.150;2022-11-20T08:38:09;1.60;99.90
2929;DHT22;1474;51.460;7.150;2022-11-20T08:40:34;1.80;99.90
2929;DHT22;1474;51.460;7.150;2022-11-20T08:43:00;1.90;99.90
2929;DHT22;1474;51.460;7.150;2022-11-20T08:45:26;2.10;99.90
2929;DHT22;1474;51.460;7.150;2022-11-20T08:47:51;2.10;99.90
2929;DHT22;1474;51.460;7.150;2022-11-20T08:50:17;2.20;99.90
2929;DHT22;1474;51.460;7.150;2022-11-20T08:52:44;2.40;99.90
2929;DHT22;1474;51.460;7.150;2022-11-20T08:55:10;2.50;99.90
2929;DHT22;1474;51.460;7.150;2022-11-20T08:57:36;2.70;99.90
2929;DHT22;1474;51.460;7.150;2022-11-20T09:00:07;2.90;99.90
2929;DHT22;1474;51.460;7.150;2022-11-20T09:02:33;3.00;99.90
2929;DHT22;1474;51.460;7.150;2022-11-20T09:04:59;3.10;99.90
2929;DHT22;1474;51.460;7.150;2022-11-20T09:07:25;3.30;99.90
2929;DHT22;1474;51.460;7.150;2022-11-20T09:09:50;3.50;99.90
2929;DHT22;1474;51.460;7.150;2022-11-20T09:12:16;3.50;99.90
2929;DHT22;1474;51.460;7.150;2022-11-20T09:14:41;3.60;99.90
2929;DHT22;1474;51.460;7.150;2022-11-20T09:17:07;3.60;99.90
2929;DHT22;1474;51.460;7.150;2022-11-20T09:19:34;3.60;99.90
2929;DHT22;1474;51.460;7.150;2022-11-20T09:22:00;3.70;99.90
2929;DHT22;1474;51.460;7.150;2022-11-20T09:24:26;3.70;99.90
2929;DHT22;1474;51.460;7.150;2022-11-20T09:26:52;3.80;99.90
2929;DHT22;1474;51.460;7.150;2022-11-20T09:29:17;3.80;99.90
2929;DHT22;1474;51.460;7.150;2022-11-20T09:31:44;3.80;99.90
2929;DHT22;1474;51.460;7.150;2022-11-20T09:34:09;3.80;99.90
2929;DHT22;1474;51.460;7.150;2022-11-20T09:36:38;3.80;99.90
2929;DHT22;1474;51.460;7.150;2022-11-20T09:39:04;3.90;99.90
2929;DHT22;1474;51.460;7.150;2022-11-20T09:41:39;3.90;99.90
2929;DHT22;1474;51.460;7.150;2022-11-20T09:47:26;4.00;99.90
2929;DHT22;1474;51.460;7.150;2022-11-20T09:50:07;4.00;99.90
2929;DHT22;1474;51.460;7.150;2022-11-20T09:55:28;4.10;99.90
2929;DHT22;1474;51.460;7.150;2022-11-20T09:57:54;4.10;99.90
2929;DHT22;1474;51.460;7.150;2022-11-20T10:00:21;4.20;99.90
2929;DHT22;1474;51.460;7.150;2022-11-20T10:06:03;4.30;99.90
2929;DHT22;1474;51.460;7.150;2022-11-20T10:08:42;4.30;99.90
2929;DHT22;1474;51.460;7.150;2022-11-20T10:11:33;4.30;99.90
2929;DHT22;1474;51.460;7.150;2022-11-20T10:17:15;4.30;99.90
2929;DHT22;1474;51.460;7.150;2022-11-20T10:22:15;4.50;99.90
2929;DHT22;1474;51.460;7.150;2022-11-20T10:30:12;4.90;99.90
2929;DHT22;1474;51.460;7.150;2022-11-20T10:32:45;5.10;99.90
2929;DHT22;1474;51.460;7.150;2022-11-20T10:35:28;5.40;99.90
2929;DHT22;1474;51.460;7.150;2022-11-20T10:38:02;5.50;99.90
2929;DHT22;1474;51.460;7.150;2022-11-20T10:43:10;5.60;99.90
2929;DHT22;1474;51.460;7.150;2022-11-20T10:45:55;5.60;99.90
2929;DHT22;1474;51.460;7.150;2022-11-20T10:48:24;5.70;99.90
2929;DHT22;1474;51.460;7.150;2022-11-20T10:51:13;5.70;99.90
2929;DHT22;1474;51.460;7.150;2022-11-20T10:56:26;5.60;99.90
2929;DHT22;1474;51.460;7.150;2022-11-20T10:59:08;5.50;99.90
2929;DHT22;1474;51.460;7.150;2022-11-20T11:01:42;5.50;99.90
2929;DHT22;1474;51.460;7.150;2022-11-20T11:06:56;5.50;99.90
2929;DHT22;1474;51.460;7.150;2022-11-20T11:09:33;5.50;99.90
2929;DHT22;1474;51.460;7.150;2022-11-20T11:11:59;5.60;99.90
2929;DHT22;1474;51.460;7.150;2022-11-20T11:14:28;5.50;99.90
2929;DHT22;1474;51.460;7.150;2022-11-20T11:16:55;5.50;99.90
2929;DHT22;1474;51.460;7.150;2022-11-20T11:19:21;5.60;99.90
2929;DHT22;1474;51.460;7.150;2022-11-20T11:21:55;5.60;99.90
2929;DHT22;1474;51.460;7.150;2022-11-20T11:24:25;5.60;99.90
2929;DHT22;1474;51.460;7.150;2022-11-20T11:26:57;5.70;99.90
2929;DHT22;1474;51.460;7.150;2022-11-20T11:29:27;5.60;99.90
2929;DHT22;1474;51.460;7.150;2022-11-20T11:34:36;5.50;99.90
2929;DHT22;1474;51.460;7.150;2022-11-20T11:37:04;5.60;99.90
2929;DHT22;1474;51.460;7.150;2022-11-20T11:39:32;5.60;99.90
2929;DHT22;1474;51.460;7.150;2022-11-20T11:42:01;5.60;99.90
2929;DHT22;1474;51.460;7.150;2022-11-20T11:44:33;5.70;99.90
2929;DHT22;1474;51.460;7.150;2022-11-20T11:55:20;6.00;99.90
2929;DHT22;1474;51.460;7.150;2022-11-20T12:00:44;6.10;99.90
2929;DHT22;1474;51.460;7.150;2022-11-20T12:03:37;6.10;99.90
2929;DHT22;1474;51.460;7.150;2022-11-20T12:06:13;6.00;99.90
2929;DHT22;1474;51.460;7.150;2022-11-20T12:08:57;5.90;99.90
2929;DHT22;1474;51.460;7.150;2022-11-20T12:11:38;6.00;99.90
2929;DHT22;1474;51.460;7.150;2022-11-20T12:14:29;5.90;99.90
2929;DHT22;1474;51.460;7.150;2022-11-20T12:16:56;6.00;99.90
2929;DHT22;1474;51.460;7.150;2022-11-20T12:19:31;6.00;99.90
2929;DHT22;1474;51.460;7.150;2022-11-20T12:25:02;6.00;99.90
2929;DHT22;1474;51.460;7.150;2022-11-20T12:30:17;5.90;99.90
2929;DHT22;1474;51.460;7.150;2022-11-20T12:33:03;6.00;99.90
2929;DHT22;1474;51.460;7.150;2022-11-20T12:35:42;5.90;99.90
2929;DHT22;1474;51.460;7.150;2022-11-20T12:52:50;5.30;99.90
2929;DHT22;1474;51.460;7.150;2022-11-20T12:58:25;5.40;99.90
2929;DHT22;1474;51.460;7.150;2022-11-20T13:01:25;5.40;99.90
2929;DHT22;1474;51.460;7.150;2022-11-20T13:04:45;5.40;99.90
2929;DHT22;1474;51.460;7.150;2022-11-20T13:07:18;5.40;99.90
2929;DHT22;1474;51.460;7.150;2022-11-20T13:09:47;5.50;99.90
2929;DHT22;1474;51.460;7.150;2022-11-20T13:18:04;5.50;99.90
2929;DHT22;1474;51.460;7.150;2022-11-20T13:20:32;5.50;99.90
2929;DHT22;1474;51.460;7.150;2022-11-20T13:22:58;5.50;99.90
2929;DHT22;1474;51.460;7.150;2022-11-20T13:25:35;5.40;99.90
2929;DHT22;1474;51.460;7.150;2022-11-20T13:30:52;5.40;99.90
2929;DHT22;1474;51.460;7.150;2022-11-20T13:33:35;5.30;99.90
2929;DHT22;1474;51.460;7.150;2022-11-20T13:36:04;5.20;99.90
2929;DHT22;1474;51.460;7.150;2022-11-20T13:38:46;5.20;99.90
2929;DHT22;1474;51.460;7.150;2022-11-20T13:41:30;5.30;99.90
2929;DHT22;1474;51.460;7.150;2022-11-20T13:44:21;5.20;99.90
2929;DHT22;1474;51.460;7.150;2022-11-20T13:46:49;5.30;99.90
2929;DHT22;1474;51.460;7.150;2022-11-20T14:01:45;5.10;99.90
2929;DHT22;1474;51.460;7.150;2022-11-20T14:03:40;5.10;99.90
2929;DHT22;1474;51.460;7.150;2022-11-20T14:06:14;5.20;99.90
2929;DHT22;1474;51.460;7.150;2022-11-20T14:08:48;5.30;99.90
2929;DHT22;1474;51.460;7.150;2022-11-20T14:11:26;5.40;99.90
2929;DHT22;1474;51.460;7.150;2022-11-20T14:14:10;5.40;99.90
2929;DHT22;1474;51.460;7.150;2022-11-20T14:16:38;5.30;99.90
2929;DHT22;1474;51.460;7.150;2022-11-20T14:21:45;5.20;99.90
2929;DHT22;1474;51.460;7.150;2022-11-20T14:24:12;5.20;99.90
2929;DHT22;1474;51.460;7.150;2022-11-20T14:26:47;5.30;99.90
2929;DHT22;1474;51.460;7.150;2022-11-20T14:29:22;5.20;99.90
2929;DHT22;1474;51.460;7.150;2022-11-20T14:31:52;5.20;99.90
2929;DHT22;1474;51.460;7.150;2022-11-20T14:34:29;5.20;99.90
2929;DHT22;1474;51.460;7.150;2022-11-20T14:37:04;5.30;99.90
2929;DHT22;1474;51.460;7.150;2022-11-20T14:39:36;5.20;99.90
2929;DHT22;1474;51.460;7.150;2022-11-20T14:42:10;5.10;99.90
2929;DHT22;1474;51.460;7.150;2022-11-20T14:44:41;5.10;99.90
2929;DHT22;1474;51.460;7.150;2022-11-20T14:47:10;5.00;99.90
2929;DHT22;1474;51.460;7.150;2022-11-20T14:49:37;5.00;99.90
2929;DHT22;1474;51.460;7.150;2022-11-20T14:52:15;4.90;99.90
2929;DHT22;1474;51.460;7.150;2022-11-20T14:54:49;4.80;99.90
2929;DHT22;1474;51.460;7.150;2022-11-20T14:57:33;4.80;99.90
2929;DHT22;1474;51.460;7.150;2022-11-20T15:02:44;5.00;99.90
2929;DHT22;1474;51.460;7.150;2022-11-20T15:05:10;4.90;99.90
2929;DHT22;1474;51.460;7.150;2022-11-20T15:07:38;4.80;99.90
2929;DHT22;1474;51.460;7.150;2022-11-20T15:10:13;4.80;99.90
2929;DHT22;1474;51.460;7.150;2022-11-20T15:12:48;4.70;99.90
2929;DHT22;1474;51.460;7.150;2022-11-20T15:15:23;4.80;99.90
2929;DHT22;1474;51.460;7.150;2022-11-20T15:17:51;4.70;99.90
2929;DHT22;1474;51.460;7.150;2022-11-20T15:20:17;4.60;99.90
2929;DHT22;1474;51.460;7.150;2022-11-20T15:22:43;4.50;99.90
2929;DHT22;1474;51.460;7.150;2022-11-20T15:25:17;4.40;99.90
2929;DHT22;1474;51.460;7.150;2022-11-20T15:27:44;4.40;99.90
2929;DHT22;1474;51.460;7.150;2022-11-20T15:30:15;4.20;99.90
2929;DHT22;1474;51.460;7.150;2022-11-20T15:32:42;4.20;99.90
2929;DHT22;1474;51.460;7.150;2022-11-20T15:35:08;4.20;99.90
2929;DHT22;1474;51.460;7.150;2022-11-20T15:37:35;4.20;99.90
2929;DHT22;1474;51.460;7.150;2022-11-20T15:40:01;4.20;99.90
2929;DHT22;1474;51.460;7.150;2022-11-20T15:42:26;4.20;99.90
2929;DHT22;1474;51.460;7.150;2022-11-20T15:44:52;4.20;99.90
2929;DHT22;1474;51.460;7.150;2022-11-20T15:47:18;4.30;99.90
2929;DHT22;1474;51.460;7.150;2022-11-20T15:49:45;4.20;99.90
2929;DHT22;1474;51.460;7.150;2022-11-20T15:52:10;4.20;99.90
2929;DHT22;1474;51.460;7.150;2022-11-20T15:54:36;4.20;99.90
2929;DHT22;1474;51.460;7.150;2022-11-20T15:57:02;4.20;99.90
2929;DHT22;1474;51.460;7.150;2022-11-20T15:59:28;4.10;99.90
2929;DHT22;1474;51.460;7.150;2022-11-20T16:01:53;4.10;99.90
2929;DHT22;1474;51.460;7.150;2022-11-20T16:04:19;4.20;99.90
2929;DHT22;1474;51.460;7.150;2022-11-20T16:06:45;4.30;99.90
2929;DHT22;1474;51.460;7.150;2022-11-20T16:09:10;4.30;99.90
2929;DHT22;1474;51.460;7.150;2022-11-20T16:11:36;4.30;99.90
2929;DHT22;1474;51.460;7.150;2022-11-20T16:14:06;4.30;99.90
2929;DHT22;1474;51.460;7.150;2022-11-20T16:16:50;4.30;99.90
2929;DHT22;1474;51.460;7.150;2022-11-20T16:19:16;4.50;99.90
2929;DHT22;1474;51.460;7.150;2022-11-20T16:21:43;4.50;99.90
2929;DHT22;1474;51.460;7.150;2022-11-20T16:24:11;4.50;99.90
2929;DHT22;1474;51.460;7.150;2022-11-20T16:26:38;4.60;99.90
2929;DHT22;1474;51.460;7.150;2022-11-20T16:29:05;4.60;99.90
2929;DHT22;1474;51.460;7.150;2022-11-20T16:31:31;4.70;99.90
2929;DHT22;1474;51.460;7.150;2022-11-20T16:34:01;4.70;99.90
2929;DHT22;1474;51.460;7.150;2022-11-20T16:36:28;4.70;99.90
2929;DHT22;1474;51.460;7.150;2022-11-20T16:38:59;4.80;99.90
2929;DHT22;1474;51.460;7.150;2022-11-20T16:41:26;4.90;99.90
2929;DHT22;1474;51.460;7.150;2022-11-20T16:43:54;4.90;99.90
2929;DHT22;1474;51.460;7.150;2022-11-20T16:46:24;5.00;99.90
2929;DHT22;1474;51.460;7.150;2022-11-20T16:48:57;5.00;99.90
2929;DHT22;1474;51.460;7.150;2022-11-20T16:51:24;5.10;99.90
2929;DHT22;1474;51.460;7.150;2022-11-20T16:53:50;5.10;99.90
2929;DHT22;1474;51.460;7.150;2022-11-20T16:56:18;5.10;99.90
2929;DHT22;1474;51.460;7.150;2022-11-20T16:58:45;5.10;99.90
2929;DHT22;1474;51.460;7.150;2022-11-20T17:01:14;5.20;99.90
2929;DHT22;1474;51.460;7.150;2022-11-20T17:03:42;5.20;99.90
2929;DHT22;1474;51.460;7.150;2022-11-20T17:06:18;5.20;99.90
2929;DHT22;1474;51.460;7.150;2022-11-20T17:08:45;5.30;99.90
2929;DHT22;1474;51.460;7.150;2022-11-20T17:11:16;5.30;99.90
2929;DHT22;1474;51.460;7.150;2022-11-20T17:13:42;5.30;99.90
2929;DHT22;1474;51.460;7.150;2022-11-20T17:16:11;5.30;99.90
2929;DHT22;1474;51.460;7.150;2022-11-20T17:18:37;5.20;99.90
2929;DHT22;1474;51.460;7.150;2022-11-20T17:21:03;5.20;99.90
2929;DHT22;1474;51.460;7.150;2022-11-20T17:23:34;5.10;99.90
2929;DHT22;1474;51.460;7.150;2022-11-20T17:26:03;5.10;99.90
2929;DHT22;1474;51.460;7.150;2022-11-20T17:28:29;5.10;99.90
2929;DHT22;1474;51.460;7.150;2022-11-20T17:31:11;5.10;99.90
2929;DHT22;1474;51.460;7.150;2022-11-20T17:33:38;5.10;99.90
2929;DHT22;1474;51.460;7.150;2022-11-20T17:36:06;5.00;99.90
2929;DHT22;1474;51.460;7.150;2022-11-20T17:38:33;5.00;99.90
2929;DHT22;1474;51.460;7.150;2022-11-20T17:43:38;5.20;99.90
2929;DHT22;1474;51.460;7.150;2022-11-20T17:46:15;5.20;99.90
2929;DHT22;1474;51.460;7.150;2022-11-20T17:48:42;5.20;99.90
2929;DHT22;1474;51.460;7.150;2022-11-20T17:51:16;5.30;99.90
2929;DHT22;1474;51.460;7.150;2022-11-20T17:53:45;5.40;99.90
2929;DHT22;1474;51.460;7.150;2022-11-20T17:56:11;5.40;99.90
2929;DHT22;1474;51.460;7.150;2022-11-20T17:58:56;5.40;99.90
2929;DHT22;1474;51.460;7.150;2022-11-20T18:01:22;5.30;99.90